sensor_id;sensor_type;location;lat;lon;timestamp;temperature;humidity
21522;DHT22;10922;45.572;10.002;2023-05-07T00:01:42;18.50;99.90
21522;DHT22;10922;45.572;10.002;2023-05-07T00:04:08;18.50;99.90
21522;DHT22;10922;45.572;10.002;2023-05-07T00:06:34;18.60;99.90
21522;DHT22;10922;45.572;10.002;2023-05-07T00:08:59;18.50;99.90
21522;DHT22;10922;45.572;10.002;2023-05-07T00:11:27;18.50;99.90
21522;DHT22;10922;45.572;10.002;2023-05-07T00:13:52;18.40;99.90
21522;DHT22;10922;45.572;10.002;2023-05-07T00:16:18;18.40;99.90
21522;DHT22;10922;45.572;10.002;2023-05-07T00:18:44;18.50;99.90
21522;DHT22;10922;45.572;10.002;2023-05-07T00:21:10;18.50;99.90
21522;DHT22;10922;45.572;10.002;2023-05-07T00:23:36;18.50;99.90
21522;DHT22;10922;45.572;10.002;2023-05-07T00:26:04;18.50;99.90
21522;DHT22;10922;45.572;10.002;2023-05-07T00:28:30;18.60;99.90
21522;DHT22;10922;45.572;10.002;2023-05-07T00:30:56;18.60;99.90
21522;DHT22;10922;45.572;10.002;2023-05-07T00:33:21;18.60;99.90
21522;DHT22;10922;45.572;10.002;2023-05-07T00:35:48;18.50;99.90
21522;DHT22;10922;45.572;10.002;2023-05-07T00:38:14;18.50;99.90
21522;DHT22;10922;45.572;10.002;2023-05-07T00:40:39;18.50;99.90
21522;DHT22;10922;45.572;10.002;2023-05-07T00:43:05;18.50;99.90
21522;DHT22;10922;45.572;10.002;2023-05-07T00:45:31;18.50;99.90
21522;DHT22;10922;45.572;10.002;2023-05-07T00:48:01;18.40;99.90
21522;DHT22;10922;45.572;10.002;2023-05-07T00:50:28;18.40;99.90
21522;DHT22;10922;45.572;10.002;2023-05-07T00:52:54;18.50;99.90
21522;DHT22;10922;45.572;10.002;2023-05-07T00:55:21;18.50;99.90
21522;DHT22;10922;45.572;10.002;2023-05-07T00:57:47;18.60;99.90
21522;DHT22;10922;45.572;10.002;2023-05-07T01:00:13;18.70;99.90
21522;DHT22;10922;45.572;10.002;2023-05-07T01:02:39;18.80;99.90
21522;DHT22;10922;45.572;10.002;2023-05-07T01:05:07;18.90;99.90
21522;DHT22;10922;45.572;10.002;2023-05-07T01:07:35;19.00;99.90
21522;DHT22;10922;45.572;10.002;2023-05-07T01:10:03;19.20;99.90
21522;DHT22;10922;45.572;10.002;2023-05-07T01:12:29;19.20;99.90
21522;DHT22;10922;45.572;10.002;2023-05-07T01:14:56;19.30;99.90
21522;DHT22;10922;45.572;10.002;2023-05-07T01:17:23;19.30;99.90
21522;DHT22;10922;45.572;10.002;2023-05-07T01:19:48;19.40;99.90
21522;DHT22;10922;45.572;10.002;2023-05-07T01:22:16;19.40;99.90
21522;DHT22;10922;45.572;10.002;2023-05-07T01:24:46;19.50;99.90
21522;DHT22;10922;45.572;10.002;2023-05-07T01:27:12;19.50;99.90
21522;DHT22;10922;45.572;10.002;2023-05-07T01:29:37;19.50;99.90
21522;DHT22;10922;45.572;10.002;2023-05-07T01:32:03;19.50;99.90
21522;DHT22;10922;45.572;10.002;2023-05-07T01:34:32;19.60;99.90
21522;DHT22;10922;45.572;10.002;2023-05-07T01:36:58;19.60;99.90
21522;DHT22;10922;45.572;10.002;2023-05-07T01:39:25;19.60;99.90
21522;DHT22;10922;45.572;10.002;2023-05-07T01:41:56;19.60;99.90
21522;DHT22;10922;45.572;10.002;2023-05-07T01:44:22;19.60;99.90
21522;DHT22;10922;45.572;10.002;2023-05-07T01:46:49;19.60;99.90
21522;DHT22;10922;45.572;10.002;2023-05-07T01:49:16;19.60;99.90
21522;DHT22;10922;45.572;10.002;2023-05-07T01:51:42;19.70;99.90
21522;DHT22;10922;45.572;10.002;2023-05-07T01:54:09;19.70;99.90
21522;DHT22;10922;45.572;10.002;2023-05-07T01:56:35;19.60;99.90
21522;DHT22;10922;45.572;10.002;2023-05-07T01:59:01;19.50;99.90
21522;DHT22;10922;45.572;10.002;2023-05-07T02:01:28;19.30;99.90
21522;DHT22;10922;45.572;10.002;2023-05-07T02:03:54;19.00;99.90
21522;DHT22;10922;45.572;10.002;2023-05-07T02:06:20;18.80;99.90
21522;DHT22;10922;45.572;10.002;2023-05-07T02:08:47;18.60;99.90
21522;DHT22;10922;45.572;10.002;2023-05-07T02:11:12;18.40;99.90
21522;DHT22;10922;45.572;10.002;2023-05-07T02:13:38;18.30;99.90
21522;DHT22;10922;45.572;10.002;2023-05-07T02:16:04;18.00;99.90
21522;DHT22;10922;45.572;10.002;2023-05-07T02:18:30;17.00;99.90
21522;DHT22;10922;45.572;10.002;2023-05-07T02:20:57;16.50;99.90
21522;DHT22;10922;45.572;10.002;2023-05-07T02:23:22;16.40;99.90
21522;DHT22;10922;45.572;10.002;2023-05-07T02:25:48;16.60;1.00
21522;DHT22;10922;45.572;10.002;2023-05-07T02:28:14;16.70;99.90
21522;DHT22;10922;45.572;10.002;2023-05-07T02:30:39;16.80;99.90
21522;DHT22;10922;45.572;10.002;2023-05-07T02:33:05;16.90;99.90
21522;DHT22;10922;45.572;10.002;2023-05-07T02:35:32;17.00;99.90
21522;DHT22;10922;45.572;10.002;2023-05-07T02:37:58;17.00;99.90
21522;DHT22;10922;45.572;10.002;2023-05-07T02:40:23;17.00;99.90
21522;DHT22;10922;45.572;10.002;2023-05-07T02:42:49;17.00;99.90
21522;DHT22;10922;45.572;10.002;2023-05-07T02:45:15;17.00;99.90
21522;DHT22;10922;45.572;10.002;2023-05-07T02:47:41;17.00;99.90
21522;DHT22;10922;45.572;10.002;2023-05-07T02:50:07;17.00;99.90
21522;DHT22;10922;45.572;10.002;2023-05-07T02:52:35;17.00;99.90
21522;DHT22;10922;45.572;10.002;2023-05-07T02:55:00;17.00;99.90
21522;DHT22;10922;45.572;10.002;2023-05-07T02:57:26;17.00;99.90
21522;DHT22;10922;45.572;10.002;2023-05-07T02:59:52;17.00;99.90
21522;DHT22;10922;45.572;10.002;2023-05-07T03:02:17;17.00;99.90
21522;DHT22;10922;45.572;10.002;2023-05-07T03:04:43;17.10;99.90
21522;DHT22;10922;45.572;10.002;2023-05-07T03:07:09;17.10;99.90
21522;DHT22;10922;45.572;10.002;2023-05-07T03:09:34;17.10;99.90
21522;DHT22;10922;45.572;10.002;2023-05-07T03:12:00;17.10;99.90
21522;DHT22;10922;45.572;10.002;2023-05-07T03:14:27;17.00;99.90
21522;DHT22;10922;45.572;10.002;2023-05-07T03:16:52;17.00;99.90
21522;DHT22;10922;45.572;10.002;2023-05-07T03:19:18;17.10;99.90
21522;DHT22;10922;45.572;10.002;2023-05-07T03:21:44;17.10;99.90
21522;DHT22;10922;45.572;10.002;2023-05-07T03:24:09;17.10;99.90
21522;DHT22;10922;45.572;10.002;2023-05-07T03:26:35;17.10;99.90
21522;DHT22;10922;45.572;10.002;2023-05-07T03:29:00;17.20;99.90
21522;DHT22;10922;45.572;10.002;2023-05-07T03:31:27;17.20;99.90
21522;DHT22;10922;45.572;10.002;2023-05-07T03:33:57;17.10;99.90
21522;DHT22;10922;45.572;10.002;2023-05-07T03:36:23;17.10;99.90
21522;DHT22;10922;45.572;10.002;2023-05-07T03:38:50;17.00;99.90
21522;DHT22;10922;45.572;10.002;2023-05-07T03:41:15;17.10;99.90
21522;DHT22;10922;45.572;10.002;2023-05-07T03:43:41;17.00;99.90
21522;DHT22;10922;45.572;10.002;2023-05-07T03:46:07;17.20;99.90
21522;DHT22;10922;45.572;10.002;2023-05-07T03:48:32;17.20;99.90
21522;DHT22;10922;45.572;10.002;2023-05-07T03:50:59;17.20;99.90
21522;DHT22;10922;45.572;10.002;2023-05-07T03:53:24;17.20;99.90
21522;DHT22;10922;45.572;10.002;2023-05-07T03:55:50;17.30;99.90
21522;DHT22;10922;45.572;10.002;2023-05-07T03:58:16;17.30;99.90
21522;DHT22;10922;45.572;10.002;2023-05-07T04:00:42;17.20;99.90
21522;DHT22;10922;45.572;10.002;2023-05-07T04:03:08;17.30;99.90
21522;DHT22;10922;45.572;10.002;2023-05-07T04:05:33;17.30;99.90
21522;DHT22;10922;45.572;10.002;2023-05-07T04:08:00;17.30;99.90
21522;DHT22;10922;45.572;10.002;2023-05-07T04:10:26;17.40;99.90
21522;DHT22;10922;45.572;10.002;2023-05-07T04:12:53;17.50;99.90
21522;DHT22;10922;45.572;10.002;2023-05-07T04:15:19;17.50;99.90
21522;DHT22;10922;45.572;10.002;2023-05-07T04:17:45;17.50;99.90
21522;DHT22;10922;45.572;10.002;2023-05-07T04:20:15;17.30;99.90
21522;DHT22;10922;45.572;10.002;2023-05-07T04:22:41;17.20;99.90
21522;DHT22;10922;45.572;10.002;2023-05-07T04:25:08;17.30;99.90
21522;DHT22;10922;45.572;10.002;2023-05-07T04:27:34;17.30;99.90
21522;DHT22;10922;45.572;10.002;2023-05-07T04:30:00;17.30;99.90
21522;DHT22;10922;45.572;10.002;2023-05-07T04:32:26;17.20;99.90
21522;DHT22;10922;45.572;10.002;2023-05-07T04:34:52;17.20;99.90
21522;DHT22;10922;45.572;10.002;2023-05-07T04:37:17;17.20;99.90
21522;DHT22;10922;45.572;10.002;2023-05-07T04:39:43;17.10;99.90
21522;DHT22;10922;45.572;10.002;2023-05-07T04:42:09;17.10;99.90
21522;DHT22;10922;45.572;10.002;2023-05-07T04:44:35;17.10;99.90
21522;DHT22;10922;45.572;10.002;2023-05-07T04:47:02;17.20;99.90
21522;DHT22;10922;45.572;10.002;2023-05-07T04:49:28;17.30;99.90
21522;DHT22;10922;45.572;10.002;2023-05-07T04:51:53;17.30;99.90
21522;DHT22;10922;45.572;10.002;2023-05-07T04:54:19;17.40;99.90
21522;DHT22;10922;45.572;10.002;2023-05-07T04:56:45;17.40;99.90
21522;DHT22;10922;45.572;10.002;2023-05-07T04:59:10;17.50;99.90
21522;DHT22;10922;45.572;10.002;2023-05-07T05:01:36;17.50;99.90
21522;DHT22;10922;45.572;10.002;2023-05-07T05:04:02;17.60;99.90
21522;DHT22;10922;45.572;10.002;2023-05-07T05:06:29;17.60;99.90
21522;DHT22;10922;45.572;10.002;2023-05-07T05:08:54;17.60;99.90
21522;DHT22;10922;45.572;10.002;2023-05-07T05:11:21;17.60;99.90
21522;DHT22;10922;45.572;10.002;2023-05-07T05:13:46;17.70;99.90
21522;DHT22;10922;45.572;10.002;2023-05-07T05:16:14;17.70;99.90
21522;DHT22;10922;45.572;10.002;2023-05-07T05:18:40;17.60;99.90
21522;DHT22;10922;45.572;10.002;2023-05-07T05:21:06;17.80;99.90
21522;DHT22;10922;45.572;10.002;2023-05-07T05:23:32;17.80;99.90
21522;DHT22;10922;45.572;10.002;2023-05-07T05:25:57;17.90;99.90
21522;DHT22;10922;45.572;10.002;2023-05-07T05:28:23;17.90;99.90
21522;DHT22;10922;45.572;10.002;2023-05-07T05:30:49;17.90;99.90
21522;DHT22;10922;45.572;10.002;2023-05-07T05:33:15;17.90;99.90
21522;DHT22;10922;45.572;10.002;2023-05-07T05:35:41;18.00;99.90
21522;DHT22;10922;45.572;10.002;2023-05-07T05:38:07;17.90;99.90
21522;DHT22;10922;45.572;10.002;2023-05-07T05:40:33;18.20;99.90
21522;DHT22;10922;45.572;10.002;2023-05-07T05:42:59;18.20;99.90
21522;DHT22;10922;45.572;10.002;2023-05-07T05:45:25;18.30;99.90
21522;DHT22;10922;45.572;10.002;2023-05-07T05:47:50;18.50;99.90
21522;DHT22;10922;45.572;10.002;2023-05-07T05:50:16;18.50;99.90
21522;DHT22;10922;45.572;10.002;2023-05-07T05:52:42;18.70;99.90
21522;DHT22;10922;45.572;10.002;2023-05-07T05:55:08;18.70;99.90
21522;DHT22;10922;45.572;10.002;2023-05-07T05:57:34;18.70;99.90
21522;DHT22;10922;45.572;10.002;2023-05-07T06:00:01;18.70;99.90
21522;DHT22;10922;45.572;10.002;2023-05-07T06:02:27;18.70;99.90
21522;DHT22;10922;45.572;10.002;2023-05-07T06:04:53;18.70;99.90
21522;DHT22;10922;45.572;10.002;2023-05-07T06:07:19;18.70;99.90
21522;DHT22;10922;45.572;10.002;2023-05-07T06:09:45;18.70;99.90
21522;DHT22;10922;45.572;10.002;2023-05-07T06:12:11;18.60;99.90
21522;DHT22;10922;45.572;10.002;2023-05-07T06:14:37;18.70;99.90
21522;DHT22;10922;45.572;10.002;2023-05-07T06:17:03;18.70;99.90
21522;DHT22;10922;45.572;10.002;2023-05-07T06:19:28;18.80;99.90
21522;DHT22;10922;45.572;10.002;2023-05-07T06:21:54;19.00;99.90
21522;DHT22;10922;45.572;10.002;2023-05-07T06:24:22;19.20;99.90
21522;DHT22;10922;45.572;10.002;2023-05-07T06:26:48;19.20;99.90
21522;DHT22;10922;45.572;10.002;2023-05-07T06:29:14;19.20;99.90
21522;DHT22;10922;45.572;10.002;2023-05-07T06:31:40;19.40;99.90
21522;DHT22;10922;45.572;10.002;2023-05-07T06:34:07;19.50;99.90
21522;DHT22;10922;45.572;10.002;2023-05-07T06:36:33;19.70;99.90
21522;DHT22;10922;45.572;10.002;2023-05-07T06:38:58;19.60;99.90
21522;DHT22;10922;45.572;10.002;2023-05-07T06:41:24;19.60;99.90
21522;DHT22;10922;45.572;10.002;2023-05-07T06:43:49;19.60;99.90
21522;DHT22;10922;45.572;10.002;2023-05-07T06:46:15;19.70;99.90
21522;DHT22;10922;45.572;10.002;2023-05-07T06:48:44;19.80;99.90
21522;DHT22;10922;45.572;10.002;2023-05-07T06:51:10;19.80;99.90
21522;DHT22;10922;45.572;10.002;2023-05-07T07:07:27;19.90;99.90
21522;DHT22;10922;45.572;10.002;2023-05-07T07:09:53;21.10;99.90
21522;DHT22;10922;45.572;10.002;2023-05-07T07:12:18;20.80;99.90
21522;DHT22;10922;45.572;10.002;2023-05-07T07:14:44;21.00;99.90
21522;DHT22;10922;45.572;10.002;2023-05-07T07:17:10;21.00;99.90
21522;DHT22;10922;45.572;10.002;2023-05-07T07:19:35;21.10;99.90
21522;DHT22;10922;45.572;10.002;2023-05-07T07:22:01;21.30;99.90
21522;DHT22;10922;45.572;10.002;2023-05-07T07:24:27;21.30;99.90
21522;DHT22;10922;45.572;10.002;2023-05-07T07:26:52;21.30;99.90
21522;DHT22;10922;45.572;10.002;2023-05-07T07:29:18;21.40;99.90
21522;DHT22;10922;45.572;10.002;2023-05-07T07:31:44;21.40;99.90
21522;DHT22;10922;45.572;10.002;2023-05-07T07:34:10;21.40;99.90
21522;DHT22;10922;45.572;10.002;2023-05-07T07:36:35;21.70;99.90
21522;DHT22;10922;45.572;10.002;2023-05-07T07:39:01;22.00;99.90
21522;DHT22;10922;45.572;10.002;2023-05-07T07:41:27;22.40;99.90
21522;DHT22;10922;45.572;10.002;2023-05-07T07:43:52;22.60;99.90
21522;DHT22;10922;45.572;10.002;2023-05-07T07:46:18;22.80;99.90
21522;DHT22;10922;45.572;10.002;2023-05-07T07:48:44;23.00;99.90
21522;DHT22;10922;45.572;10.002;2023-05-07T07:51:10;23.10;99.90
21522;DHT22;10922;45.572;10.002;2023-05-07T07:53:35;23.00;99.90
21522;DHT22;10922;45.572;10.002;2023-05-07T07:56:01;22.90;99.90
21522;DHT22;10922;45.572;10.002;2023-05-07T07:58:27;22.80;99.90
21522;DHT22;10922;45.572;10.002;2023-05-07T08:00:52;22.90;99.90
21522;DHT22;10922;45.572;10.002;2023-05-07T08:03:19;23.10;99.90
21522;DHT22;10922;45.572;10.002;2023-05-07T08:05:45;23.10;99.90
21522;DHT22;10922;45.572;10.002;2023-05-07T08:08:11;23.20;99.90
21522;DHT22;10922;45.572;10.002;2023-05-07T08:10:37;23.40;99.90
21522;DHT22;10922;45.572;10.002;2023-05-07T08:13:04;23.60;99.90
21522;DHT22;10922;45.572;10.002;2023-05-07T08:15:31;23.70;99.90
21522;DHT22;10922;45.572;10.002;2023-05-07T08:17:57;23.70;99.90
21522;DHT22;10922;45.572;10.002;2023-05-07T08:20:25;23.80;99.90
21522;DHT22;10922;45.572;10.002;2023-05-07T08:22:51;23.70;99.90
21522;DHT22;10922;45.572;10.002;2023-05-07T08:25:17;23.70;99.90
21522;DHT22;10922;45.572;10.002;2023-05-07T08:27:42;23.30;99.90
21522;DHT22;10922;45.572;10.002;2023-05-07T08:30:10;23.60;99.90
21522;DHT22;10922;45.572;10.002;2023-05-07T08:32:36;23.60;99.90
21522;DHT22;10922;45.572;10.002;2023-05-07T08:35:02;23.70;99.90
21522;DHT22;10922;45.572;10.002;2023-05-07T08:37:27;23.80;99.90
21522;DHT22;10922;45.572;10.002;2023-05-07T08:39:53;23.70;99.90
21522;DHT22;10922;45.572;10.002;2023-05-07T08:42:20;23.80;99.90
21522;DHT22;10922;45.572;10.002;2023-05-07T08:44:51;23.80;99.90
21522;DHT22;10922;45.572;10.002;2023-05-07T08:47:20;23.80;99.90
21522;DHT22;10922;45.572;10.002;2023-05-07T08:49:48;23.90;99.90
21522;DHT22;10922;45.572;10.002;2023-05-07T08:52:15;23.90;99.90
21522;DHT22;10922;45.572;10.002;2023-05-07T08:54:41;23.80;99.90
21522;DHT22;10922;45.572;10.002;2023-05-07T08:57:06;23.90;99.90
21522;DHT22;10922;45.572;10.002;2023-05-07T08:59:32;23.80;99.90
21522;DHT22;10922;45.572;10.002;2023-05-07T09:01:58;24.00;99.90
21522;DHT22;10922;45.572;10.002;2023-05-07T09:04:23;24.00;99.90
21522;DHT22;10922;45.572;10.002;2023-05-07T09:06:49;24.10;99.90
21522;DHT22;10922;45.572;10.002;2023-05-07T09:09:17;24.40;99.90
21522;DHT22;10922;45.572;10.002;2023-05-07T09:11:46;24.40;99.90
21522;DHT22;10922;45.572;10.002;2023-05-07T09:14:11;24.10;99.90
21522;DHT22;10922;45.572;10.002;2023-05-07T09:16:37;24.10;99.90
21522;DHT22;10922;45.572;10.002;2023-05-07T09:19:04;24.10;99.90
21522;DHT22;10922;45.572;10.002;2023-05-07T09:21:29;24.30;99.90
21522;DHT22;10922;45.572;10.002;2023-05-07T09:23:55;24.30;99.90
21522;DHT22;10922;45.572;10.002;2023-05-07T09:26:22;24.30;99.90
21522;DHT22;10922;45.572;10.002;2023-05-07T09:28:48;24.50;99.90
21522;DHT22;10922;45.572;10.002;2023-05-07T09:31:13;24.70;99.90
21522;DHT22;10922;45.572;10.002;2023-05-07T09:33:40;24.60;99.90
21522;DHT22;10922;45.572;10.002;2023-05-07T09:36:07;24.40;99.90
21522;DHT22;10922;45.572;10.002;2023-05-07T09:38:33;24.80;99.90
21522;DHT22;10922;45.572;10.002;2023-05-07T09:41:07;24.50;99.90
21522;DHT22;10922;45.572;10.002;2023-05-07T09:43:34;24.80;99.90
21522;DHT22;10922;45.572;10.002;2023-05-07T09:46:07;25.20;99.90
21522;DHT22;10922;45.572;10.002;2023-05-07T09:48:37;25.10;99.90
21522;DHT22;10922;45.572;10.002;2023-05-07T09:51:11;25.00;99.90
21522;DHT22;10922;45.572;10.002;2023-05-07T09:53:41;25.30;99.90
21522;DHT22;10922;45.572;10.002;2023-05-07T09:56:07;25.50;99.90
21522;DHT22;10922;45.572;10.002;2023-05-07T09:58:37;25.70;99.90
21522;DHT22;10922;45.572;10.002;2023-05-07T10:01:03;25.30;99.90
21522;DHT22;10922;45.572;10.002;2023-05-07T10:03:31;25.40;99.90
21522;DHT22;10922;45.572;10.002;2023-05-07T10:05:58;25.50;99.90
21522;DHT22;10922;45.572;10.002;2023-05-07T10:08:24;25.70;99.90
21522;DHT22;10922;45.572;10.002;2023-05-07T10:10:50;25.70;99.90
21522;DHT22;10922;45.572;10.002;2023-05-07T10:13:18;25.80;99.90
21522;DHT22;10922;45.572;10.002;2023-05-07T10:15:44;26.00;99.90
21522;DHT22;10922;45.572;10.002;2023-05-07T10:18:12;26.30;99.90
21522;DHT22;10922;45.572;10.002;2023-05-07T10:20:39;26.30;99.90
21522;DHT22;10922;45.572;10.002;2023-05-07T10:23:05;26.20;99.90
21522;DHT22;10922;45.572;10.002;2023-05-07T10:25:32;26.30;99.90
21522;DHT22;10922;45.572;10.002;2023-05-07T10:28:06;26.70;99.90
21522;DHT22;10922;45.572;10.002;2023-05-07T10:30:58;26.80;99.90
21522;DHT22;10922;45.572;10.002;2023-05-07T10:33:29;26.60;99.90
21522;DHT22;10922;45.572;10.002;2023-05-07T10:35:59;26.70;99.90
21522;DHT22;10922;45.572;10.002;2023-05-07T10:38:27;26.90;99.90
21522;DHT22;10922;45.572;10.002;2023-05-07T10:40:53;27.10;99.90
21522;DHT22;10922;45.572;10.002;2023-05-07T10:43:19;27.10;99.90
21522;DHT22;10922;45.572;10.002;2023-05-07T10:46:17;27.30;99.90
21522;DHT22;10922;45.572;10.002;2023-05-07T10:49:06;27.40;99.90
21522;DHT22;10922;45.572;10.002;2023-05-07T10:51:33;27.60;99.90
21522;DHT22;10922;45.572;10.002;2023-05-07T10:56:40;27.80;99.90
21522;DHT22;10922;45.572;10.002;2023-05-07T11:02:04;28.20;99.90
21522;DHT22;10922;45.572;10.002;2023-05-07T11:04:32;28.30;99.90
21522;DHT22;10922;45.572;10.002;2023-05-07T11:17:51;27.60;99.90
21522;DHT22;10922;45.572;10.002;2023-05-07T11:20:17;27.10;99.90
21522;DHT22;10922;45.572;10.002;2023-05-07T11:22:43;27.90;99.90
21522;DHT22;10922;45.572;10.002;2023-05-07T11:25:09;28.00;99.90
21522;DHT22;10922;45.572;10.002;2023-05-07T11:27:35;27.30;99.90
21522;DHT22;10922;45.572;10.002;2023-05-07T11:30:01;27.50;99.90
21522;DHT22;10922;45.572;10.002;2023-05-07T11:32:28;28.10;99.90
21522;DHT22;10922;45.572;10.002;2023-05-07T11:34:55;28.20;99.90
21522;DHT22;10922;45.572;10.002;2023-05-07T11:37:22;28.10;99.90
21522;DHT22;10922;45.572;10.002;2023-05-07T11:39:48;28.30;99.90
21522;DHT22;10922;45.572;10.002;2023-05-07T11:44:56;29.40;99.90
21522;DHT22;10922;45.572;10.002;2023-05-07T11:47:22;29.40;99.90
21522;DHT22;10922;45.572;10.002;2023-05-07T11:49:49;29.90;99.90
21522;DHT22;10922;45.572;10.002;2023-05-07T11:52:15;29.90;99.90
21522;DHT22;10922;45.572;10.002;2023-05-07T11:54:41;28.90;99.90
21522;DHT22;10922;45.572;10.002;2023-05-07T11:57:16;28.60;99.90
21522;DHT22;10922;45.572;10.002;2023-05-07T11:59:42;29.20;99.90
21522;DHT22;10922;45.572;10.002;2023-05-07T12:02:17;29.60;99.90
21522;DHT22;10922;45.572;10.002;2023-05-07T12:04:42;29.30;99.90
21522;DHT22;10922;45.572;10.002;2023-05-07T12:07:12;29.10;99.90
21522;DHT22;10922;45.572;10.002;2023-05-07T12:09:39;29.70;99.90
21522;DHT22;10922;45.572;10.002;2023-05-07T12:12:06;30.50;99.90
21522;DHT22;10922;45.572;10.002;2023-05-07T12:14:32;29.60;99.90
21522;DHT22;10922;45.572;10.002;2023-05-07T12:16:59;28.40;99.90
21522;DHT22;10922;45.572;10.002;2023-05-07T12:19:28;28.00;99.90
21522;DHT22;10922;45.572;10.002;2023-05-07T12:21:54;27.90;99.90
21522;DHT22;10922;45.572;10.002;2023-05-07T12:24:21;27.80;99.90
21522;DHT22;10922;45.572;10.002;2023-05-07T12:26:48;27.90;99.90
21522;DHT22;10922;45.572;10.002;2023-05-07T12:29:13;27.30;99.90
21522;DHT22;10922;45.572;10.002;2023-05-07T12:31:42;27.60;99.90
21522;DHT22;10922;45.572;10.002;2023-05-07T12:34:10;27.40;99.90
21522;DHT22;10922;45.572;10.002;2023-05-07T12:36:39;27.10;99.90
21522;DHT22;10922;45.572;10.002;2023-05-07T12:39:08;27.40;99.90
21522;DHT22;10922;45.572;10.002;2023-05-07T12:41:54;28.20;99.90
21522;DHT22;10922;45.572;10.002;2023-05-07T12:44:22;28.20;99.90
21522;DHT22;10922;45.572;10.002;2023-05-07T12:46:49;30.90;99.90
21522;DHT22;10922;45.572;10.002;2023-05-07T12:49:15;34.50;99.90
21522;DHT22;10922;45.572;10.002;2023-05-07T12:51:40;36.00;99.90
21522;DHT22;10922;45.572;10.002;2023-05-07T12:54:06;35.80;99.90
21522;DHT22;10922;45.572;10.002;2023-05-07T12:56:35;36.10;99.90
21522;DHT22;10922;45.572;10.002;2023-05-07T12:59:01;35.00;99.90
21522;DHT22;10922;45.572;10.002;2023-05-07T13:01:30;33.50;99.90
21522;DHT22;10922;45.572;10.002;2023-05-07T13:04:02;37.50;99.90
21522;DHT22;10922;45.572;10.002;2023-05-07T13:06:30;40.30;99.90
21522;DHT22;10922;45.572;10.002;2023-05-07T13:08:56;39.20;99.90
21522;DHT22;10922;45.572;10.002;2023-05-07T13:11:22;41.40;99.90
21522;DHT22;10922;45.572;10.002;2023-05-07T13:13:48;41.30;99.90
21522;DHT22;10922;45.572;10.002;2023-05-07T13:16:14;39.30;99.90
21522;DHT22;10922;45.572;10.002;2023-05-07T13:18:40;39.90;99.90
21522;DHT22;10922;45.572;10.002;2023-05-07T13:21:06;38.50;99.90
21522;DHT22;10922;45.572;10.002;2023-05-07T13:23:31;40.60;99.90
21522;DHT22;10922;45.572;10.002;2023-05-07T13:25:57;38.90;99.90
21522;DHT22;10922;45.572;10.002;2023-05-07T13:28:24;37.90;99.90
21522;DHT22;10922;45.572;10.002;2023-05-07T13:30:49;39.30;99.90
21522;DHT22;10922;45.572;10.002;2023-05-07T13:33:17;39.00;99.90
21522;DHT22;10922;45.572;10.002;2023-05-07T13:35:43;40.10;99.90
21522;DHT22;10922;45.572;10.002;2023-05-07T13:38:09;42.30;99.90
21522;DHT22;10922;45.572;10.002;2023-05-07T13:40:35;40.40;99.90
21522;DHT22;10922;45.572;10.002;2023-05-07T13:43:00;43.60;99.90
21522;DHT22;10922;45.572;10.002;2023-05-07T13:45:29;45.20;99.90
21522;DHT22;10922;45.572;10.002;2023-05-07T13:47:55;42.00;99.90
21522;DHT22;10922;45.572;10.002;2023-05-07T13:50:21;39.80;99.90
21522;DHT22;10922;45.572;10.002;2023-05-07T13:52:48;36.70;99.90
21522;DHT22;10922;45.572;10.002;2023-05-07T13:55:20;34.90;99.90
21522;DHT22;10922;45.572;10.002;2023-05-07T13:57:46;36.30;99.90
21522;DHT22;10922;45.572;10.002;2023-05-07T14:00:13;37.70;99.90
21522;DHT22;10922;45.572;10.002;2023-05-07T14:02:39;37.50;99.90
21522;DHT22;10922;45.572;10.002;2023-05-07T14:05:05;39.60;99.90
21522;DHT22;10922;45.572;10.002;2023-05-07T14:07:30;37.60;99.90
21522;DHT22;10922;45.572;10.002;2023-05-07T14:09:57;36.70;99.90
21522;DHT22;10922;45.572;10.002;2023-05-07T14:12:22;37.50;99.90
21522;DHT22;10922;45.572;10.002;2023-05-07T14:14:48;40.50;99.90
21522;DHT22;10922;45.572;10.002;2023-05-07T14:17:18;41.10;99.90
21522;DHT22;10922;45.572;10.002;2023-05-07T14:19:47;41.00;99.90
21522;DHT22;10922;45.572;10.002;2023-05-07T14:22:13;41.90;99.90
21522;DHT22;10922;45.572;10.002;2023-05-07T14:24:39;41.60;99.90
21522;DHT22;10922;45.572;10.002;2023-05-07T14:27:08;41.50;99.90
21522;DHT22;10922;45.572;10.002;2023-05-07T14:29:34;42.60;99.90
21522;DHT22;10922;45.572;10.002;2023-05-07T14:32:01;42.30;99.90
21522;DHT22;10922;45.572;10.002;2023-05-07T14:34:27;39.60;99.90
21522;DHT22;10922;45.572;10.002;2023-05-07T14:36:53;38.90;99.90
21522;DHT22;10922;45.572;10.002;2023-05-07T14:39:18;39.10;99.90
21522;DHT22;10922;45.572;10.002;2023-05-07T14:41:44;40.20;99.90
21522;DHT22;10922;45.572;10.002;2023-05-07T14:44:10;38.50;99.90
21522;DHT22;10922;45.572;10.002;2023-05-07T14:46:35;41.50;99.90
21522;DHT22;10922;45.572;10.002;2023-05-07T14:49:02;41.10;99.90
21522;DHT22;10922;45.572;10.002;2023-05-07T14:51:28;40.80;99.90
21522;DHT22;10922;45.572;10.002;2023-05-07T14:53:54;39.80;99.90
21522;DHT22;10922;45.572;10.002;2023-05-07T14:56:20;37.60;99.90
21522;DHT22;10922;45.572;10.002;2023-05-07T14:58:47;37.40;99.90
21522;DHT22;10922;45.572;10.002;2023-05-07T15:01:13;38.00;99.90
21522;DHT22;10922;45.572;10.002;2023-05-07T15:03:40;39.60;99.90
21522;DHT22;10922;45.572;10.002;2023-05-07T15:06:05;37.70;99.90
21522;DHT22;10922;45.572;10.002;2023-05-07T15:08:31;37.20;99.90
21522;DHT22;10922;45.572;10.002;2023-05-07T15:10:57;36.30;99.90
21522;DHT22;10922;45.572;10.002;2023-05-07T15:13:22;35.30;99.90
21522;DHT22;10922;45.572;10.002;2023-05-07T15:15:48;35.80;99.90
21522;DHT22;10922;45.572;10.002;2023-05-07T15:18:15;33.90;99.90
21522;DHT22;10922;45.572;10.002;2023-05-07T15:20:41;33.90;99.90
21522;DHT22;10922;45.572;10.002;2023-05-07T15:23:08;33.40;99.90
21522;DHT22;10922;45.572;10.002;2023-05-07T15:25:36;34.00;99.90
21522;DHT22;10922;45.572;10.002;2023-05-07T15:28:02;35.20;99.90
21522;DHT22;10922;45.572;10.002;2023-05-07T15:30:28;35.60;99.90
21522;DHT22;10922;45.572;10.002;2023-05-07T15:32:57;36.50;99.90
21522;DHT22;10922;45.572;10.002;2023-05-07T15:35:23;37.30;99.90
21522;DHT22;10922;45.572;10.002;2023-05-07T15:37:49;37.70;99.90
21522;DHT22;10922;45.572;10.002;2023-05-07T15:40:15;38.40;99.90
21522;DHT22;10922;45.572;10.002;2023-05-07T15:42:41;37.00;99.90
21522;DHT22;10922;45.572;10.002;2023-05-07T15:45:07;36.60;99.90